Time;durP1;ratioP1;P1;durP2;ratioP2;P2;SDS_P1;SDS_P2;PMS_P1;PMS_P2;Temp;Humidity;BMP_temperature;BMP_pressure;BME280_temperature;BME280_humidity;BME280_pressure;Samples;Min_cycle;Max_cycle;Signal;HPM_P1;HPM_P2
2023/03/30 00:00:55;;;;;;;53.93;23.60;;;;;;;;;;5034536;28;20213;-53
2023/03/30 00:03:22;;;;;;;50.47;22.60;;;;;;;;;;5034324;28;20629;-52
2023/03/30 00:05:50;;;;;;;51.67;21.80;;;;;;;;;;5034099;28;20254;-51
2023/03/30 00:08:17;;;;;;;54.13;23.03;;;;;;;;;;5034192;28;20684;-51
2023/03/30 00:10:45;;;;;;;49.63;21.57;;;;;;;;;;5034147;28;20204;-51
2023/03/30 00:13:12;;;;;;;280.27;116.03;;;;;;;;;;5034174;28;20205;-53
2023/03/30 00:15:40;;;;;;;78.73;33.03;;;;;;;;;;5034049;28;20232;-52
2023/03/30 00:18:08;;;;;;;63.63;26.17;;;;;;;;;;5033990;28;20540;-53
2023/03/30 00:20:36;;;;;;;46.53;21.17;;;;;;;;;;5033859;28;20205;-50
2023/03/30 00:23:03;;;;;;;49.90;22.10;;;;;;;;;;5034218;28;20205;-51
2023/03/30 00:25:31;;;;;;;57.43;21.33;;;;;;;;;;5033887;28;20215;-52
2023/03/30 00:27:58;;;;;;;51.97;20.40;;;;;;;;;;5034011;28;20579;-51
2023/03/30 00:30:25;;;;;;;50.83;20.73;;;;;;;;;;5016481;28;20209;-50
2023/03/30 00:32:52;;;;;;;45.17;20.10;;;;;;;;;;5033705;28;20283;-51
2023/03/30 00:35:20;;;;;;;61.27;27.17;;;;;;;;;;5033852;28;20209;-52
2023/03/30 00:37:48;;;;;;;78.47;29.70;;;;;;;;;;5033483;28;20621;-50
2023/03/30 00:40:19;;;;;;;65.40;26.10;;;;;;;;;;5033816;28;20208;-52
2023/03/30 00:42:47;;;;;;;62.70;23.80;;;;;;;;;;5033020;28;20693;-50
2023/03/30 00:45:26;;;;;;;59.07;22.57;;;;;;;;;;5033720;28;20205;-52
2023/03/30 00:48:00;;;;;;;61.53;22.73;;;;;;;;;;5033536;28;20303;-50
2023/03/30 00:50:39;;;;;;;42.40;20.30;;;;;;;;;;5016001;28;20660;-52
2023/03/30 00:53:16;;;;;;;50.67;20.93;;;;;;;;;;5016285;28;20204;-51
2023/03/30 00:55:45;;;;;;;48.57;21.90;;;;;;;;;;5033409;28;20596;-50
2023/03/30 00:58:14;;;;;;;50.50;20.17;;;;;;;;;;5033346;28;20201;-53
2023/03/30 01:00:45;;;;;;;46.43;20.00;;;;;;;;;;5033458;28;20204;-51
2023/03/30 01:03:20;;;;;;;51.53;20.57;;;;;;;;;;5016284;28;20208;-53
2023/03/30 01:05:48;;;;;;;49.37;20.07;;;;;;;;;;5016174;28;20578;-53
2023/03/30 01:08:15;;;;;;;55.83;20.87;;;;;;;;;;5033775;28;20215;-51
2023/03/30 01:10:43;;;;;;;42.70;19.63;;;;;;;;;;5033233;28;20204;-54
2023/03/30 01:13:12;;;;;;;44.50;18.90;;;;;;;;;;5032083;28;20197;-53
2023/03/30 01:16:07;;;;;;;56.03;24.97;;;;;;;;;;5033269;28;20232;-51
2023/03/30 01:19:15;;;;;;;56.03;21.60;;;;;;;;;;4993591;28;20296;-54
2023/03/30 01:22:15;;;;;;;45.87;18.93;;;;;;;;;;5033114;28;20246;-51
2023/03/30 01:25:03;;;;;;;206.03;80.33;;;;;;;;;;5016040;28;20200;-51
2023/03/30 01:27:47;;;;;;;52.97;22.00;;;;;;;;;;5032493;28;20197;-51
2023/03/30 01:30:14;;;;;;;46.83;20.23;;;;;;;;;;5033314;28;20200;-50
2023/03/30 01:33:27;;;;;;;46.37;19.30;;;;;;;;;;5033329;28;20564;-52
2023/03/30 01:36:10;;;;;;;39.80;17.80;;;;;;;;;;5031841;28;20213;-52
2023/03/30 01:38:43;;;;;;;40.50;17.57;;;;;;;;;;5015498;28;20209;-52
2023/03/30 01:41:40;;;;;;;39.93;17.30;;;;;;;;;;5033222;28;20262;-51
2023/03/30 01:44:22;;;;;;;37.87;16.70;;;;;;;;;;5006674;28;20696;-50
2023/03/30 01:46:54;;;;;;;35.27;16.03;;;;;;;;;;5032174;28;20192;-50
2023/03/30 01:49:28;;;;;;;39.07;16.90;;;;;;;;;;5015856;28;20193;-51
2023/03/30 01:52:08;;;;;;;42.73;17.67;;;;;;;;;;5031701;28;20557;-50
2023/03/30 01:54:39;;;;;;;40.07;16.80;;;;;;;;;;5033838;28;20212;-51
2023/03/30 01:57:10;;;;;;;46.63;17.60;;;;;;;;;;5002983;28;20311;-50
2023/03/30 01:59:43;;;;;;;35.00;15.53;;;;;;;;;;5019335;28;20209;-51
2023/03/30 02:02:10;;;;;;;33.40;14.30;;;;;;;;;;5019289;28;20209;-52
2023/03/30 02:04:40;;;;;;;39.00;16.30;;;;;;;;;;5036386;28;20204;-52
2023/03/30 02:07:11;;;;;;;43.73;20.03;;;;;;;;;;5035569;28;20691;-51
2023/03/30 02:09:40;;;;;;;30.53;15.20;;;;;;;;;;5036633;28;20193;-50
2023/03/30 02:12:08;;;;;;;45.53;16.87;;;;;;;;;;5018887;28;20635;-52
2023/03/30 02:14:37;;;;;;;32.10;13.50;;;;;;;;;;5018908;28;20220;-51
2023/03/30 02:17:10;;;;;;;31.73;13.50;;;;;;;;;;4999037;28;20606;-53
2023/03/30 02:19:38;;;;;;;33.93;14.40;;;;;;;;;;5016713;28;20206;-50
2023/03/30 02:22:05;;;;;;;28.83;14.17;;;;;;;;;;5016641;28;20205;-51
2023/03/30 02:24:32;;;;;;;29.40;13.57;;;;;;;;;;5015196;28;20198;-52
2023/03/30 02:27:03;;;;;;;34.63;16.70;;;;;;;;;;5031667;28;20205;-51
2023/03/30 02:29:30;;;;;;;40.20;17.57;;;;;;;;;;5015033;28;20639;-54
2023/03/30 02:31:59;;;;;;;38.40;16.37;;;;;;;;;;5015395;28;20560;-51
2023/03/30 02:34:59;;;;;;;31.33;15.90;;;;;;;;;;5015377;28;20670;-51
2023/03/30 02:37:33;;;;;;;32.70;14.77;;;;;;;;;;5015053;28;20280;-51
2023/03/30 02:40:26;;;;;;;33.73;14.77;;;;;;;;;;5016356;28;20188;-56
2023/03/30 02:42:59;;;;;;;35.77;16.07;;;;;;;;;;5031358;28;20662;-54
2023/03/30 02:45:49;;;;;;;41.93;19.10;;;;;;;;;;5015147;28;20190;-52
2023/03/30 02:48:39;;;;;;;44.87;17.53;;;;;;;;;;5031340;28;20277;-51
2023/03/30 02:52:00;;;;;;;250.80;102.23;;;;;;;;;;5031423;28;20190;-51
2023/03/30 02:54:46;;;;;;;41.83;18.53;;;;;;;;;;5031004;28;20284;-51
2023/03/30 02:57:31;;;;;;;33.33;14.97;;;;;;;;;;5015684;28;20213;-52
2023/03/30 03:00:42;;;;;;;41.33;15.90;;;;;;;;;;5028041;28;20205;-54
2023/03/30 03:03:23;;;;;;;35.80;13.30;;;;;;;;;;5014527;28;20592;-55
2023/03/30 03:05:53;;;;;;;29.10;12.80;;;;;;;;;;5030727;28;20209;-54
2023/03/30 03:08:31;;;;;;;31.50;13.27;;;;;;;;;;5014615;28;20201;-51
2023/03/30 03:10:59;;;;;;;33.20;13.20;;;;;;;;;;5014378;28;20252;-51
2023/03/30 03:13:29;;;;;;;26.63;13.17;;;;;;;;;;5014333;28;20666;-53
2023/03/30 03:15:56;;;;;;;25.53;11.83;;;;;;;;;;5030460;28;20243;-51
2023/03/30 03:18:26;;;;;;;27.47;12.97;;;;;;;;;;5014417;28;20229;-52
2023/03/30 03:20:54;;;;;;;28.47;12.37;;;;;;;;;;5014729;28;20296;-53
2023/03/30 03:23:23;;;;;;;27.60;12.17;;;;;;;;;;5030447;28;20213;-51
2023/03/30 03:25:53;;;;;;;23.73;10.80;;;;;;;;;;5014031;28;20595;-51
2023/03/30 03:28:21;;;;;;;26.97;11.77;;;;;;;;;;5014360;28;20213;-51
2023/03/30 03:30:53;;;;;;;30.13;13.37;;;;;;;;;;5013944;28;20635;-51
2023/03/30 03:33:23;;;;;;;67.67;23.93;;;;;;;;;;5013752;28;20202;-54
2023/03/30 03:36:16;;;;;;;109.03;29.83;;;;;;;;;;5014123;28;20209;-50
2023/03/30 03:38:48;;;;;;;71.33;21.20;;;;;;;;;;5013075;28;20701;-55
2023/03/30 03:41:15;;;;;;;64.97;20.57;;;;;;;;;;5046650;28;20216;-51
2023/03/30 03:43:43;;;;;;;105.17;58.33;;;;;;;;;;5013394;28;20217;-51
2023/03/30 03:46:12;;;;;;;40.70;26.93;;;;;;;;;;5013525;28;20228;-52
2023/03/30 03:48:40;;;;;;;33.70;18.07;;;;;;;;;;5013329;28;20205;-51
2023/03/30 03:51:08;;;;;;;30.37;14.77;;;;;;;;;;5013338;28;20709;-55
2023/03/30 03:53:36;;;;;;;63.77;24.70;;;;;;;;;;5008686;28;20205;-55
2023/03/30 03:56:07;;;;;;;33.50;15.00;;;;;;;;;;5033181;28;20228;-54
2023/03/30 03:58:34;;;;;;;31.50;13.07;;;;;;;;;;5012203;28;20232;-54
2023/03/30 04:01:01;;;;;;;23.27;10.17;;;;;;;;;;5013300;28;20621;-52
2023/03/30 04:03:30;;;;;;;27.63;11.53;;;;;;;;;;5000890;28;20221;-52
2023/03/30 04:05:59;;;;;;;22.40;10.43;;;;;;;;;;5011005;28;20678;-51
2023/03/30 04:08:27;;;;;;;23.03;10.03;;;;;;;;;;5011463;28;20225;-51
2023/03/30 04:11:08;;;;;;;51.97;22.27;;;;;;;;;;5008948;28;20557;-51
2023/03/30 04:13:44;;;;;;;73.93;39.33;;;;;;;;;;5013268;28;20252;-51
2023/03/30 04:16:11;;;;;;;38.97;17.23;;;;;;;;;;5019641;28;20237;-54
2023/03/30 04:18:40;;;;;;;21.00;10.13;;;;;;;;;;5032809;28;20236;-51
2023/03/30 04:21:28;;;;;;;29.60;12.07;;;;;;;;;;5032794;28;20229;-55
2023/03/30 04:24:10;;;;;;;25.57;10.27;;;;;;;;;;5032311;28;20539;-54
2023/03/30 04:26:57;;;;;;;26.87;10.90;;;;;;;;;;5032864;28;20315;-51
2023/03/30 04:29:45;;;;;;;28.27;10.70;;;;;;;;;;4991968;28;20577;-52
2023/03/30 04:32:33;;;;;;;21.57;9.57;;;;;;;;;;5033901;28;20248;-51
2023/03/30 04:35:13;;;;;;;27.37;12.43;;;;;;;;;;5032523;28;20239;-51
2023/03/30 04:38:00;;;;;;;21.20;9.87;;;;;;;;;;5024902;28;20439;-51
2023/03/30 04:40:48;;;;;;;28.90;10.60;;;;;;;;;;5031546;28;20239;-55
2023/03/30 04:43:36;;;;;;;22.93;10.10;;;;;;;;;;5028534;28;20217;-56
2023/03/30 04:46:26;;;;;;;17.47;8.90;;;;;;;;;;5028388;28;20282;-52
2023/03/30 04:49:10;;;;;;;18.00;9.33;;;;;;;;;;5014065;28;20199;-52
2023/03/30 04:51:56;;;;;;;18.20;9.30;;;;;;;;;;5029947;28;20196;-53
2023/03/30 04:54:42;;;;;;;63.63;24.70;;;;;;;;;;5026583;28;20196;-56
2023/03/30 04:57:29;;;;;;;32.27;18.67;;;;;;;;;;5029935;28;20220;-50
2023/03/30 05:00:08;;;;;;;23.20;12.40;;;;;;;;;;5012549;28;20272;-53
2023/03/30 05:03:03;;;;;;;18.50;9.10;;;;;;;;;;4970573;28;20210;-54
2023/03/30 05:05:53;;;;;;;19.40;9.30;;;;;;;;;;4954711;28;20218;-54
2023/03/30 05:08:43;;;;;;;22.07;8.80;;;;;;;;;;4944254;28;20213;-51
2023/03/30 05:11:13;;;;;;;16.53;8.60;;;;;;;;;;4970965;28;20201;-50
2023/03/30 05:13:43;;;;;;;21.40;9.27;;;;;;;;;;4970634;28;20206;-50
2023/03/30 05:16:40;;;;;;;18.70;8.70;;;;;;;;;;4919992;28;20224;-54
2023/03/30 05:19:13;;;;;;;18.30;7.87;;;;;;;;;;4970884;28;20702;-52
2023/03/30 05:22:02;;;;;;;17.20;8.20;;;;;;;;;;4954948;28;20198;-55
2023/03/30 05:24:48;;;;;;;19.40;8.83;;;;;;;;;;4969976;28;20241;-52
2023/03/30 05:27:35;;;;;;;23.70;9.23;;;;;;;;;;4946529;28;20206;-52
2023/03/30 05:30:21;;;;;;;20.80;9.50;;;;;;;;;;4976405;28;20750;-51
2023/03/30 05:33:08;;;;;;;17.30;8.43;;;;;;;;;;4976314;28;20202;-52
2023/03/30 05:36:14;;;;;;;19.57;9.30;;;;;;;;;;4937581;29;20212;-53
2023/03/30 05:38:53;;;;;;;17.53;9.30;;;;;;;;;;4940590;28;20227;-52
2023/03/30 05:41:56;;;;;;;19.07;7.93;;;;;;;;;;4968801;28;20202;-53
2023/03/30 05:44:35;;;;;;;16.80;8.40;;;;;;;;;;5030177;28;20299;-53
2023/03/30 05:47:21;;;;;;;22.13;9.33;;;;;;;;;;5036804;28;20215;-53
2023/03/30 05:50:08;;;;;;;19.00;8.10;;;;;;;;;;5036993;28;20270;-51
2023/03/30 05:52:47;;;;;;;21.17;7.97;;;;;;;;;;5019184;28;20243;-53
2023/03/30 05:55:22;;;;;;;18.43;8.70;;;;;;;;;;5019103;28;20220;-51
2023/03/30 05:58:13;;;;;;;29.27;13.47;;;;;;;;;;5036367;28;20720;-52
2023/03/30 06:01:12;;;;;;;22.03;9.27;;;;;;;;;;4975670;28;20566;-53
2023/03/30 06:03:42;;;;;;;16.63;8.20;;;;;;;;;;4959723;28;20235;-53
2023/03/30 06:06:11;;;;;;;28.80;10.43;;;;;;;;;;4975522;28;20202;-54
2023/03/30 06:08:40;;;;;;;20.23;8.67;;;;;;;;;;4959495;28;20210;-52
2023/03/30 06:11:12;;;;;;;19.27;8.77;;;;;;;;;;4959461;28;20680;-52
2023/03/30 06:13:53;;;;;;;24.10;9.43;;;;;;;;;;4975697;28;20218;-52
2023/03/30 06:16:20;;;;;;;24.20;8.87;;;;;;;;;;4959135;28;20735;-55
2023/03/30 06:18:48;;;;;;;27.50;12.03;;;;;;;;;;4975332;28;20230;-54
2023/03/30 06:21:15;;;;;;;32.93;13.00;;;;;;;;;;4975361;28;20262;-53
2023/03/30 06:23:56;;;;;;;20.57;8.83;;;;;;;;;;4975552;28;20207;-51
2023/03/30 06:26:27;;;;;;;33.17;11.50;;;;;;;;;;4975619;28;20579;-51
2023/03/30 06:28:54;;;;;;;25.83;8.87;;;;;;;;;;4975226;28;20213;-52
2023/03/30 06:31:21;;;;;;;24.50;9.50;;;;;;;;;;4975105;28;20213;-54
2023/03/30 06:33:56;;;;;;;25.03;9.20;;;;;;;;;;4959433;28;20202;-51
2023/03/30 06:36:24;;;;;;;19.57;8.73;;;;;;;;;;4977626;28;20212;-54
2023/03/30 06:39:12;;;;;;;28.43;14.40;;;;;;;;;;5017978;28;20278;-54
2023/03/30 06:41:40;;;;;;;23.20;10.10;;;;;;;;;;5018144;28;20224;-54
2023/03/30 06:44:22;;;;;;;26.03;10.33;;;;;;;;;;5034905;28;20216;-52
2023/03/30 06:46:49;;;;;;;22.40;8.73;;;;;;;;;;5035003;28;20618;-52
2023/03/30 06:49:17;;;;;;;19.77;8.47;;;;;;;;;;5018277;28;20227;-53
2023/03/30 06:51:44;;;;;;;16.20;7.93;;;;;;;;;;5035908;28;20220;-54
2023/03/30 06:54:12;;;;;;;15.63;7.47;;;;;;;;;;5018479;28;20661;-52
2023/03/30 06:56:48;;;;;;;20.77;8.17;;;;;;;;;;5018323;28;20205;-55
2023/03/30 06:59:17;;;;;;;29.67;13.57;;;;;;;;;;5018087;28;20330;-53
2023/03/30 07:02:03;;;;;;;21.10;8.70;;;;;;;;;;5035439;28;20204;-54
2023/03/30 07:04:50;;;;;;;30.83;10.60;;;;;;;;;;5035710;28;20211;-55
2023/03/30 07:07:26;;;;;;;23.73;8.40;;;;;;;;;;5018073;28;20204;-55
2023/03/30 07:09:54;;;;;;;21.10;9.13;;;;;;;;;;5017697;28;20243;-55
2023/03/30 07:12:22;;;;;;;20.97;9.13;;;;;;;;;;5017831;28;20200;-53
2023/03/30 07:14:50;;;;;;;171.17;72.57;;;;;;;;;;5017674;28;20239;-55
2023/03/30 07:17:18;;;;;;;49.30;23.50;;;;;;;;;;5028824;28;20241;-53
2023/03/30 07:19:45;;;;;;;25.47;11.60;;;;;;;;;;5014097;28;20622;-52
2023/03/30 07:22:13;;;;;;;18.40;8.50;;;;;;;;;;5014353;28;20208;-51
2023/03/30 07:24:40;;;;;;;18.67;8.67;;;;;;;;;;5014384;28;20296;-53
2023/03/30 07:27:08;;;;;;;19.47;9.23;;;;;;;;;;5014028;28;20201;-51
2023/03/30 07:29:36;;;;;;;18.47;8.80;;;;;;;;;;5013836;28;20237;-54
2023/03/30 07:32:04;;;;;;;15.27;8.17;;;;;;;;;;5014409;28;20205;-54
2023/03/30 07:34:32;;;;;;;18.13;8.00;;;;;;;;;;5014175;28;20279;-52
2023/03/30 07:37:00;;;;;;;32.30;13.63;;;;;;;;;;5013898;28;20213;-53
2023/03/30 07:39:30;;;;;;;20.17;9.40;;;;;;;;;;5013443;28;20256;-55
2023/03/30 07:42:03;;;;;;;28.37;11.07;;;;;;;;;;5013168;28;20208;-52
2023/03/30 07:44:30;;;;;;;20.33;8.67;;;;;;;;;;5028727;28;20712;-55
2023/03/30 07:47:05;;;;;;;19.50;8.60;;;;;;;;;;5046331;28;20205;-55
2023/03/30 07:49:33;;;;;;;37.17;12.13;;;;;;;;;;5013585;28;20201;-54
2023/03/30 07:52:01;;;;;;;21.00;9.83;;;;;;;;;;5013523;28;20212;-53
2023/03/30 07:54:38;;;;;;;21.93;9.63;;;;;;;;;;5013540;28;20189;-52
2023/03/30 07:57:16;;;;;;;21.03;11.20;;;;;;;;;;5030284;28;20582;-52
2023/03/30 07:59:43;;;;;;;22.77;9.23;;;;;;;;;;5013498;28;20676;-53
2023/03/30 08:02:38;;;;;;;26.83;9.67;;;;;;;;;;5014479;28;20201;-54
2023/03/30 08:05:10;;;;;;;26.30;10.40;;;;;;;;;;5046578;28;20208;-55
2023/03/30 08:08:12;;;;;;;19.17;7.77;;;;;;;;;;4973299;28;20211;-54
2023/03/30 08:10:40;;;;;;;19.90;8.43;;;;;;;;;;4973586;28;20206;-54
2023/03/30 08:13:08;;;;;;;14.07;7.27;;;;;;;;;;4973201;28;20297;-52
2023/03/30 08:15:35;;;;;;;23.23;9.73;;;;;;;;;;4973196;28;20664;-55
2023/03/30 08:18:06;;;;;;;23.93;11.07;;;;;;;;;;4973164;28;20235;-53
2023/03/30 08:20:35;;;;;;;28.27;11.90;;;;;;;;;;4973218;28;20723;-52
2023/03/30 08:23:04;;;;;;;39.77;10.60;;;;;;;;;;4973227;28;20556;-52
2023/03/30 08:25:31;;;;;;;22.43;8.23;;;;;;;;;;4973148;28;20660;-54
2023/03/30 08:27:59;;;;;;;21.70;8.07;;;;;;;;;;4973284;28;20203;-52
2023/03/30 08:30:26;;;;;;;29.87;9.27;;;;;;;;;;4972946;28;20217;-52
2023/03/30 08:32:53;;;;;;;15.83;7.67;;;;;;;;;;4973480;28;20721;-55
2023/03/30 08:35:20;;;;;;;26.10;9.77;;;;;;;;;;4973034;28;20202;-55
2023/03/30 08:37:49;;;;;;;37.47;15.10;;;;;;;;;;4972889;28;20617;-54
2023/03/30 08:40:17;;;;;;;24.53;10.87;;;;;;;;;;4972760;28;20695;-52
2023/03/30 08:43:05;;;;;;;18.87;8.30;;;;;;;;;;4995463;28;20236;-55
2023/03/30 08:45:38;;;;;;;20.37;8.47;;;;;;;;;;5012854;28;20256;-55
2023/03/30 08:48:24;;;;;;;21.53;10.90;;;;;;;;;;5013829;28;20217;-51
2023/03/30 08:50:57;;;;;;;16.90;7.93;;;;;;;;;;5013532;28;20666;-54
2023/03/30 08:53:29;;;;;;;15.93;7.03;;;;;;;;;;5013546;28;20248;-55
2023/03/30 08:56:09;;;;;;;103.43;42.90;;;;;;;;;;5012654;28;20205;-54
2023/03/30 08:58:47;;;;;;;28.40;10.97;;;;;;;;;;5013697;28;20235;-53
2023/03/30 09:01:36;;;;;;;19.17;8.10;;;;;;;;;;5013694;28;20208;-51
2023/03/30 09:04:08;;;;;;;16.27;6.93;;;;;;;;;;5013192;28;20205;-51
2023/03/30 09:06:50;;;;;;;35.80;11.50;;;;;;;;;;5013468;28;20555;-54
2023/03/30 09:09:20;;;;;;;20.50;7.57;;;;;;;;;;5012739;28;20203;-52
2023/03/30 09:11:52;;;;;;;13.67;6.53;;;;;;;;;;5013552;28;20241;-55
2023/03/30 09:14:33;;;;;;;20.30;7.67;;;;;;;;;;5012760;28;20570;-54
2023/03/30 09:17:08;;;;;;;48.50;21.40;;;;;;;;;;5025213;28;20228;-55
2023/03/30 09:19:47;;;;;;;37.00;13.70;;;;;;;;;;5033133;28;20693;-52
2023/03/30 09:22:15;;;;;;;20.70;7.90;;;;;;;;;;5033214;28;20197;-53
2023/03/30 09:24:42;;;;;;;20.07;8.13;;;;;;;;;;5016159;28;20207;-54
2023/03/30 09:27:39;;;;;;;17.97;8.50;;;;;;;;;;5048738;28;20287;-54
2023/03/30 09:30:19;;;;;;;21.83;8.60;;;;;;;;;;5015738;28;20659;-55
2023/03/30 09:32:58;;;;;;;19.17;8.07;;;;;;;;;;5032902;28;20631;-53
2023/03/30 09:35:40;;;;;;;21.20;9.97;;;;;;;;;;5033195;28;20204;-54
2023/03/30 09:38:11;;;;;;;30.23;10.83;;;;;;;;;;5033216;28;20204;-54
2023/03/30 09:41:06;;;;;;;25.23;8.63;;;;;;;;;;5033127;28;20270;-51
2023/03/30 09:43:39;;;;;;;20.93;7.87;;;;;;;;;;5033273;28;20254;-53
2023/03/30 09:46:08;;;;;;;22.65;8.80;;;;;;;;;;5048391;28;20216;-54
2023/03/30 09:48:40;;;;;;;15.97;7.77;;;;;;;;;;5033035;28;20239;-53
2023/03/30 09:51:26;;;;;;;15.13;7.75;;;;;;;;;;5032975;28;20205;-55
2023/03/30 09:53:59;;;;;;;15.13;7.87;;;;;;;;;;5033267;28;20263;-54
2023/03/30 09:56:45;;;;;;;120.15;49.92;;;;;;;;;;5033287;28;20201;-52
2023/03/30 09:59:28;;;;;;;30.03;11.93;;;;;;;;;;5033172;28;20243;-54
2023/03/30 10:02:16;;;;;;;20.67;9.37;;;;;;;;;;5033315;28;20196;-52
2023/03/30 10:05:05;;;;;;;17.10;7.43;;;;;;;;;;5033100;28;20226;-54
2023/03/30 10:07:40;;;;;;;18.67;7.40;;;;;;;;;;5033110;28;20189;-53
2023/03/30 10:10:19;;;;;;;14.20;6.80;;;;;;;;;;5032795;28;20215;-54
2023/03/30 10:12:48;;;;;;;20.33;8.40;;;;;;;;;;5015338;28;20213;-51
2023/03/30 10:15:22;;;;;;;15.70;6.25;;;;;;;;;;5016685;28;20263;-52
2023/03/30 10:17:53;;;;;;;35.60;15.17;;;;;;;;;;5019052;28;20243;-53
2023/03/30 10:20:29;;;;;;;25.33;8.63;;;;;;;;;;5019519;28;20229;-54
2023/03/30 10:23:07;;;;;;;38.30;11.55;;;;;;;;;;5036908;28;20216;-54
2023/03/30 10:25:34;;;;;;;429.38;170.80;;;;;;;;;;5019203;28;20223;-55
2023/03/30 10:28:03;;;;;;;94.88;43.05;;;;;;;;;;5036650;28;20201;-54
2023/03/30 10:30:31;;;;;;;34.77;14.97;;;;;;;;;;5036230;28;20205;-54
2023/03/30 10:33:00;;;;;;;35.17;14.18;;;;;;;;;;5036021;28;20208;-51
2023/03/30 10:35:36;;;;;;;30.08;10.68;;;;;;;;;;5018802;28;20656;-53
2023/03/30 10:38:04;;;;;;;26.27;9.05;;;;;;;;;;5036288;28;20189;-54
2023/03/30 10:40:38;;;;;;;11.77;6.90;;;;;;;;;;5035830;28;20252;-52
2023/03/30 10:43:17;;;;;;;16.98;8.00;;;;;;;;;;5035942;28;20228;-52
2023/03/30 10:45:53;;;;;;;15.93;7.83;;;;;;;;;;5051372;28;20204;-51
2023/03/30 10:48:45;;;;;;;17.80;9.02;;;;;;;;;;5018492;28;20208;-55
2023/03/30 10:51:20;;;;;;;19.10;9.35;;;;;;;;;;5035695;28;20193;-53
2023/03/30 10:54:18;;;;;;;27.33;10.50;;;;;;;;;;5035716;28;20212;-55
2023/03/30 10:56:51;;;;;;;18.23;7.88;;;;;;;;;;5035620;28;20649;-54
2023/03/30 10:59:43;;;;;;;17.63;8.00;;;;;;;;;;5018267;28;20232;-55
2023/03/30 11:02:35;;;;;;;20.90;9.13;;;;;;;;;;5018382;28;20209;-54
2023/03/30 11:05:14;;;;;;;17.80;9.13;;;;;;;;;;5036026;28;20275;-55
2023/03/30 11:08:02;;;;;;;87.03;36.13;;;;;;;;;;5018065;28;20283;-55
2023/03/30 11:10:32;;;;;;;18.58;8.15;;;;;;;;;;5018084;28;20406;-53
2023/03/30 11:13:10;;;;;;;28.88;10.77;;;;;;;;;;5018171;28;20197;-54
2023/03/30 11:15:59;;;;;;;23.48;8.50;;;;;;;;;;5035175;28;20606;-55
2023/03/30 11:18:45;;;;;;;18.35;7.88;;;;;;;;;;4994530;28;20564;-54
2023/03/30 11:21:33;;;;;;;26.73;10.52;;;;;;;;;;4996351;28;20217;-56
2023/03/30 11:24:06;;;;;;;21.88;8.95;;;;;;;;;;4996075;28;20632;-54
2023/03/30 11:27:00;;;;;;;32.97;11.25;;;;;;;;;;4994593;28;20213;-53
2023/03/30 11:29:36;;;;;;;16.25;8.20;;;;;;;;;;5027143;28;20213;-53
2023/03/30 11:32:06;;;;;;;19.33;8.45;;;;;;;;;;4994695;28;20205;-54
2023/03/30 11:34:47;;;;;;;17.75;8.07;;;;;;;;;;4995984;28;20270;-55
2023/03/30 11:37:45;;;;;;;16.13;9.15;;;;;;;;;;4994713;28;20549;-55
2023/03/30 11:40:26;;;;;;;36.13;10.50;;;;;;;;;;5000930;28;20229;-54
2023/03/30 11:42:54;;;;;;;20.90;9.13;;;;;;;;;;5027148;28;20206;-51
2023/03/30 11:45:30;;;;;;;19.63;8.65;;;;;;;;;;4994955;28;20229;-55
2023/03/30 11:48:26;;;;;;;23.60;13.60;;;;;;;;;;4992760;28;20194;-56
2023/03/30 11:51:21;;;;;;;20.00;8.68;;;;;;;;;;4988349;28;20214;-56
2023/03/30 11:54:16;;;;;;;16.75;8.75;;;;;;;;;;4993102;28;20194;-57
2023/03/30 11:56:49;;;;;;;17.63;8.07;;;;;;;;;;4993397;28;20201;-57
2023/03/30 11:59:22;;;;;;;34.15;11.05;;;;;;;;;;5023368;28;20297;-57
2023/03/30 12:02:04;;;;;;;31.05;12.13;;;;;;;;;;4993913;28;20198;-55
2023/03/30 12:04:48;;;;;;;26.60;10.95;;;;;;;;;;4992654;28;20670;-56
2023/03/30 12:07:44;;;;;;;35.17;18.45;;;;;;;;;;4991706;28;20194;-57
2023/03/30 12:10:32;;;;;;;68.22;24.63;;;;;;;;;;4987629;28;20206;-56
2023/03/30 12:13:00;;;;;;;36.55;13.38;;;;;;;;;;4976278;28;20349;-58
2023/03/30 12:15:39;;;;;;;26.85;10.68;;;;;;;;;;4993591;28;20203;-58
2023/03/30 12:18:15;;;;;;;31.95;12.82;;;;;;;;;;5042982;28;20262;-58
2023/03/30 12:20:42;;;;;;;23.83;11.30;;;;;;;;;;5012797;28;20213;-57
2023/03/30 12:23:33;;;;;;;20.15;9.52;;;;;;;;;;5012768;28;20547;-56
2023/03/30 12:26:08;;;;;;;20.63;10.02;;;;;;;;;;5026595;28;20662;-56
2023/03/30 12:28:43;;;;;;;74.85;27.67;;;;;;;;;;5009436;28;20196;-56
2023/03/30 12:31:16;;;;;;;36.33;13.70;;;;;;;;;;5010607;28;20647;-58
2023/03/30 12:33:50;;;;;;;18.48;9.63;;;;;;;;;;5011701;28;20221;-55
2023/03/30 12:36:37;;;;;;;32.70;11.77;;;;;;;;;;5004198;28;20228;-58
2023/03/30 12:39:15;;;;;;;23.73;9.60;;;;;;;;;;5012270;28;20236;-56
2023/03/30 12:41:47;;;;;;;262.02;122.63;;;;;;;;;;4998412;28;20225;-57
2023/03/30 12:44:28;;;;;;;52.65;24.80;;;;;;;;;;5012242;28;20235;-57
2023/03/30 12:47:20;;;;;;;24.17;12.60;;;;;;;;;;5009751;28;20229;-54
2023/03/30 12:50:11;;;;;;;14.30;8.57;;;;;;;;;;5009679;28;20264;-57
2023/03/30 12:52:44;;;;;;;17.42;9.35;;;;;;;;;;5010119;28;20217;-58
2023/03/30 12:55:21;;;;;;;25.92;10.52;;;;;;;;;;5011660;28;20209;-58
2023/03/30 12:57:54;;;;;;;21.25;9.00;;;;;;;;;;5009882;28;20217;-57
2023/03/30 13:00:39;;;;;;;22.83;9.30;;;;;;;;;;5008339;28;20232;-55
2023/03/30 13:03:51;;;;;;;51.17;23.20;;;;;;;;;;5010513;28;21216;-59
2023/03/30 13:06:30;;;;;;;12.05;8.18;;;;;;;;;;4993815;28;20225;-58
2023/03/30 13:09:06;;;;;;;19.85;9.32;;;;;;;;;;5011469;28;20221;-59
2023/03/30 13:12:05;;;;;;;23.60;10.18;;;;;;;;;;5011493;28;20220;-58
2023/03/30 13:14:33;;;;;;;31.10;11.18;;;;;;;;;;5026967;28;20267;-58
2023/03/30 13:17:00;;;;;;;14.20;7.85;;;;;;;;;;5022305;28;20220;-56
2023/03/30 13:19:31;;;;;;;16.58;8.27;;;;;;;;;;5030679;28;20235;-58
2023/03/30 13:22:10;;;;;;;15.82;8.32;;;;;;;;;;5029905;28;20302;-59
2023/03/30 13:24:42;;;;;;;11.95;7.78;;;;;;;;;;5030767;28;20220;-58
2023/03/30 13:27:12;;;;;;;14.30;7.78;;;;;;;;;;5031364;28;20221;-58
2023/03/30 13:29:41;;;;;;;12.90;7.35;;;;;;;;;;5030978;28;20232;-59
2023/03/30 13:32:14;;;;;;;12.52;7.13;;;;;;;;;;5030886;28;20225;-59
2023/03/30 13:34:51;;;;;;;17.88;8.48;;;;;;;;;;5030750;28;20270;-58
2023/03/30 13:37:55;;;;;;;14.40;7.25;;;;;;;;;;5031913;28;20223;-59
2023/03/30 13:40:27;;;;;;;11.07;6.95;;;;;;;;;;5022274;28;20236;-58
2023/03/30 13:43:39;;;;;;;42.40;22.45;;;;;;;;;;5031682;28;20219;-57
2023/03/30 13:46:39;;;;;;;18.85;9.80;;;;;;;;;;5031573;28;20258;-58
2023/03/30 13:49:18;;;;;;;16.83;7.30;;;;;;;;;;5025962;28;20216;-57
2023/03/30 13:51:46;;;;;;;20.50;8.95;;;;;;;;;;5035114;28;20228;-58
2023/03/30 13:54:17;;;;;;;20.83;8.82;;;;;;;;;;5035820;28;20221;-59
2023/03/30 13:56:53;;;;;;;54.58;28.23;;;;;;;;;;5036145;28;20228;-58
2023/03/30 13:59:23;;;;;;;21.25;11.55;;;;;;;;;;5035415;28;20577;-58
2023/03/30 14:01:56;;;;;;;15.35;7.30;;;;;;;;;;5036039;28;20229;-59
2023/03/30 14:04:28;;;;;;;9.70;6.60;;;;;;;;;;5018300;28;20231;-59
2023/03/30 14:06:57;;;;;;;11.50;6.68;;;;;;;;;;5035160;28;20221;-59
2023/03/30 14:09:26;;;;;;;17.20;6.78;;;;;;;;;;5035560;28;20229;-59
2023/03/30 14:11:55;;;;;;;13.35;6.63;;;;;;;;;;5035751;28;20221;-59
2023/03/30 14:14:30;;;;;;;18.90;9.05;;;;;;;;;;5035485;28;20324;-59
2023/03/30 14:17:00;;;;;;;13.95;7.88;;;;;;;;;;5014180;28;20241;-58
2023/03/30 14:19:35;;;;;;;15.30;9.20;;;;;;;;;;5015410;28;20230;-58
2023/03/30 14:22:15;;;;;;;11.88;7.50;;;;;;;;;;5004032;28;20749;-58
2023/03/30 14:24:59;;;;;;;22.05;9.63;;;;;;;;;;5008123;28;20237;-58
2023/03/30 14:27:33;;;;;;;12.93;7.32;;;;;;;;;;4980585;28;20214;-60
2023/03/30 14:30:00;;;;;;;14.68;8.27;;;;;;;;;;4991571;28;20268;-59
2023/03/30 14:32:27;;;;;;;15.90;8.43;;;;;;;;;;4990959;28;20318;-58
2023/03/30 14:34:55;;;;;;;24.40;9.90;;;;;;;;;;4994953;28;20230;-58
2023/03/30 14:37:24;;;;;;;12.80;7.82;;;;;;;;;;4994910;28;20225;-59
2023/03/30 14:39:53;;;;;;;12.85;8.82;;;;;;;;;;4991764;28;20237;-57
2023/03/30 14:42:24;;;;;;;13.23;8.45;;;;;;;;;;4976238;28;20738;-58
2023/03/30 14:44:54;;;;;;;26.85;10.30;;;;;;;;;;5004004;28;20229;-57
2023/03/30 14:47:23;;;;;;;25.02;10.02;;;;;;;;;;4996707;28;20248;-57
2023/03/30 14:49:53;;;;;;;22.67;9.88;;;;;;;;;;4992601;28;20240;-57
2023/03/30 14:52:24;;;;;;;16.70;8.55;;;;;;;;;;4994516;28;20218;-58
2023/03/30 14:54:54;;;;;;;17.17;7.68;;;;;;;;;;4991849;28;20426;-57
2023/03/30 14:57:36;;;;;;;47.50;21.85;;;;;;;;;;4984553;28;20273;-58
2023/03/30 15:00:16;;;;;;;39.03;17.05;;;;;;;;;;4999126;28;20237;-58
2023/03/30 15:02:44;;;;;;;26.15;10.32;;;;;;;;;;4987495;28;20226;-58
2023/03/30 15:05:15;;;;;;;28.48;10.90;;;;;;;;;;4990105;28;20309;-58
2023/03/30 15:07:47;;;;;;;30.75;11.77;;;;;;;;;;4994554;28;20718;-58
2023/03/30 15:10:32;;;;;;;24.67;10.35;;;;;;;;;;4994076;28;20222;-57
2023/03/30 15:13:01;;;;;;;17.10;7.93;;;;;;;;;;5011917;28;20228;-59
2023/03/30 15:15:30;;;;;;;11.32;7.35;;;;;;;;;;4996020;28;20234;-59
2023/03/30 15:17:58;;;;;;;26.75;12.48;;;;;;;;;;5032608;28;20228;-58